createdAt,value
2023-05-06T00:00:59.760Z,4.50
2023-05-06T00:02:01.801Z,4.88
2023-05-06T00:03:03.445Z,4.80
2023-05-06T00:04:05.991Z,4.47
2023-05-06T00:05:08.159Z,3.97
2023-05-06T00:06:10.023Z,4.10
2023-05-06T00:07:12.733Z,4.20
2023-05-06T00:08:14.379Z,4.43
2023-05-06T00:09:16.669Z,4.38
2023-05-06T00:10:18.351Z,4.57
2023-05-06T00:11:19.996Z,4.35
2023-05-06T00:12:21.690Z,4.45
2023-05-06T00:13:23.322Z,4.50
2023-05-06T00:14:24.907Z,4.00
2023-05-06T00:15:26.552Z,4.70
2023-05-06T00:16:28.223Z,4.50
2023-05-06T00:17:29.872Z,5.25
2023-05-06T00:18:31.525Z,4.80
2023-05-06T00:19:33.424Z,5.00
2023-05-06T00:20:35.611Z,5.03
2023-05-06T00:21:37.163Z,4.72
2023-05-06T00:22:38.742Z,4.18
2023-05-06T00:23:40.367Z,4.47
2023-05-06T00:24:41.963Z,4.28
2023-05-06T00:25:43.595Z,4.53
2023-05-06T00:26:45.654Z,4.70
2023-05-06T00:27:47.331Z,4.57
2023-05-06T00:28:48.930Z,4.57
2023-05-06T00:29:50.645Z,4.97
2023-05-06T00:30:52.200Z,5.28
2023-05-06T00:31:53.869Z,5.18
2023-05-06T00:32:55.990Z,4.40
2023-05-06T00:33:57.619Z,5.00
2023-05-06T00:34:59.249Z,4.70
2023-05-06T00:36:00.876Z,4.75
2023-05-06T00:37:02.494Z,5.28
2023-05-06T00:38:08.782Z,4.95
2023-05-06T00:39:10.359Z,4.25
2023-05-06T00:40:12.507Z,4.70
2023-05-06T00:41:14.136Z,4.78
2023-05-06T00:42:15.810Z,4.47
2023-05-06T00:43:17.350Z,4.88
2023-05-06T00:44:19.218Z,4.90
2023-05-06T00:45:20.937Z,4.85
2023-05-06T00:46:22.625Z,4.70
2023-05-06T00:47:25.569Z,4.95
2023-05-06T00:48:27.257Z,5.07
2023-05-06T00:49:30.451Z,5.25
2023-05-06T00:50:33.305Z,4.72
2023-05-06T00:51:35.274Z,5.13
2023-05-06T00:52:36.889Z,4.93
2023-05-06T00:53:38.779Z,4.97
2023-05-06T00:54:40.453Z,4.68
2023-05-06T00:55:42.034Z,4.47
2023-05-06T00:56:43.666Z,5.47
2023-05-06T00:57:45.350Z,5.28
2023-05-06T00:58:46.937Z,5.22
2023-05-06T00:59:48.839Z,4.95
2023-05-06T01:00:52.160Z,5.53
2023-05-06T01:01:53.968Z,4.82
2023-05-06T01:02:55.575Z,5.15
2023-05-06T01:03:58.760Z,4.82
2023-05-06T01:05:00.712Z,5.10
2023-05-06T01:06:13.465Z,4.85
2023-05-06T01:07:33.157Z,4.90
2023-05-06T01:08:44.503Z,4.35
2023-05-06T01:10:08.033Z,4.85
2023-05-06T01:11:17.101Z,4.63
2023-05-06T01:12:29.525Z,4.40
2023-05-06T01:13:35.739Z,4.40
2023-05-06T01:14:43.611Z,4.93
2023-05-06T01:15:46.729Z,4.80
2023-05-06T01:16:54.407Z,4.50
2023-05-06T01:17:58.142Z,4.65
2023-05-06T01:19:00.466Z,4.95
2023-05-06T01:20:02.351Z,4.40
2023-05-06T01:21:05.398Z,4.75
2023-05-06T01:22:07.450Z,4.95
2023-05-06T01:23:15.927Z,5.05
2023-05-06T01:24:17.523Z,5.07
2023-05-06T01:25:20.690Z,4.82
2023-05-06T01:26:23.703Z,5.30
2023-05-06T01:28:26.750Z,5.05
2023-05-06T01:29:28.399Z,5.05
2023-05-06T01:30:35.979Z,5.18
2023-05-06T01:31:45.874Z,5.40
2023-05-06T01:32:57.816Z,4.80
2023-05-06T01:34:07.780Z,5.63
2023-05-06T01:35:28.503Z,5.35
2023-05-06T01:36:44.693Z,5.32
2023-05-06T01:37:59.428Z,5.22
2023-05-06T01:39:24.430Z,5.20
2023-05-06T01:40:27.487Z,5.00
2023-05-06T01:41:34.436Z,5.10
2023-05-06T01:42:38.612Z,5.20
2023-05-06T01:43:42.810Z,5.55
2023-05-06T01:44:44.547Z,5.07
2023-05-06T01:45:49.486Z,5.30
2023-05-06T01:46:51.980Z,5.18
2023-05-06T01:48:58.193Z,4.97
2023-05-06T01:50:00.249Z,5.68
2023-05-06T01:51:02.925Z,5.10
2023-05-06T01:52:04.561Z,5.30
2023-05-06T01:53:06.111Z,5.10
2023-05-06T01:54:07.692Z,5.10
2023-05-06T01:55:09.591Z,5.35
2023-05-06T01:56:11.398Z,5.28
2023-05-06T01:57:12.995Z,5.30
2023-05-06T01:58:15.072Z,4.95
2023-05-06T01:59:16.672Z,5.38
2023-05-06T02:00:18.412Z,5.45
2023-05-06T02:01:20.010Z,5.28
2023-05-06T02:02:21.584Z,5.90
2023-05-06T02:03:23.291Z,5.43
2023-05-06T02:04:25.207Z,4.93
2023-05-06T02:05:26.987Z,5.88
2023-05-06T02:06:31.719Z,5.38
2023-05-06T02:07:33.831Z,5.82
2023-05-06T02:08:35.666Z,5.28
2023-05-06T02:09:38.464Z,5.25
2023-05-06T02:10:40.082Z,5.80
2023-05-06T02:11:43.753Z,5.70
2023-05-06T02:12:45.350Z,6.13
2023-05-06T02:13:47.014Z,5.68
2023-05-06T02:14:48.595Z,6.30
2023-05-06T02:15:54.164Z,6.10
2023-05-06T02:16:56.766Z,6.28
2023-05-06T02:17:59.959Z,6.70
2023-05-06T02:19:01.672Z,6.18
2023-05-06T02:20:03.799Z,6.50
2023-05-06T02:21:05.876Z,6.47
2023-05-06T02:22:07.546Z,6.55
2023-05-06T02:23:09.216Z,6.15
2023-05-06T02:24:10.758Z,7.00
2023-05-06T02:25:12.331Z,6.97
2023-05-06T02:26:13.935Z,5.80
2023-05-06T02:27:15.586Z,6.43
2023-05-06T02:28:17.269Z,6.47
2023-05-06T02:29:18.838Z,7.30
2023-05-06T02:30:20.428Z,6.53
2023-05-06T02:31:23.075Z,6.75
2023-05-06T02:32:24.787Z,7.15
2023-05-06T02:33:28.253Z,6.80
2023-05-06T02:34:29.793Z,6.43
2023-05-06T02:35:31.400Z,6.40
2023-05-06T02:36:33.213Z,6.93
2023-05-06T02:37:34.799Z,6.75
2023-05-06T02:38:36.639Z,7.00
2023-05-06T02:39:38.260Z,6.72
2023-05-06T02:41:42.198Z,6.10
2023-05-06T02:42:43.806Z,7.32
2023-05-06T02:43:47.633Z,6.85
2023-05-06T02:44:49.213Z,6.68
2023-05-06T02:45:50.911Z,7.25
2023-05-06T02:46:53.783Z,7.43
2023-05-06T02:47:55.586Z,7.20
2023-05-06T02:48:57.222Z,7.45
2023-05-06T02:49:58.881Z,6.70
2023-05-06T02:51:02.017Z,6.70
2023-05-06T02:52:03.775Z,6.40
2023-05-06T02:53:05.395Z,7.15
2023-05-06T02:54:07.101Z,6.45
2023-05-06T02:55:09.064Z,6.68
2023-05-06T02:56:11.025Z,6.47
2023-05-06T02:57:12.721Z,6.45
2023-05-06T02:58:14.386Z,6.32
2023-05-06T02:59:16.653Z,6.97
2023-05-06T03:00:18.539Z,6.68
2023-05-06T03:01:20.187Z,7.32
2023-05-06T03:02:21.935Z,7.57
2023-05-06T03:03:23.579Z,6.97
2023-05-06T03:04:25.206Z,6.60
2023-05-06T03:05:26.864Z,7.10
2023-05-06T03:06:28.401Z,6.88
2023-05-06T03:07:30.539Z,7.75
2023-05-06T03:09:34.304Z,6.72
2023-05-06T03:10:36.032Z,7.20
2023-05-06T03:11:37.615Z,7.65
2023-05-06T03:12:40.706Z,7.28
2023-05-06T03:13:42.469Z,7.25
2023-05-06T03:14:44.099Z,6.55
2023-05-06T03:15:52.148Z,6.90
2023-05-06T03:16:54.009Z,7.40
2023-05-06T03:18:58.809Z,7.10
2023-05-06T03:20:00.427Z,7.32
2023-05-06T03:21:02.275Z,6.93
2023-05-06T03:22:04.848Z,7.22
2023-05-06T03:23:08.516Z,7.10
2023-05-06T03:24:10.288Z,7.35
2023-05-06T03:25:12.201Z,7.75
2023-05-06T03:26:15.469Z,8.45
2023-05-06T03:27:17.223Z,8.02
2023-05-06T03:28:22.029Z,8.00
2023-05-06T03:29:24.690Z,7.80
2023-05-06T03:31:30.957Z,6.75
2023-05-06T03:32:34.287Z,7.38
2023-05-06T03:33:36.577Z,8.02
2023-05-06T03:34:39.424Z,7.13
2023-05-06T03:35:42.687Z,7.30
2023-05-06T03:36:44.264Z,6.65
2023-05-06T03:37:45.931Z,7.43
2023-05-06T03:38:47.741Z,7.88
2023-05-06T03:39:49.483Z,7.63
2023-05-06T03:40:53.276Z,7.55
2023-05-06T03:41:55.835Z,7.22
2023-05-06T03:42:58.104Z,7.78
2023-05-06T03:43:59.778Z,7.80
2023-05-06T03:45:03.157Z,7.75
2023-05-06T03:46:07.801Z,7.30
2023-05-06T03:47:11.209Z,7.97
2023-05-06T03:48:12.979Z,7.80
2023-05-06T03:49:17.578Z,7.93
2023-05-06T03:50:21.399Z,8.07
2023-05-06T03:51:24.092Z,8.32
2023-05-06T03:52:26.051Z,7.75
2023-05-06T03:53:28.403Z,7.60
2023-05-06T03:54:29.967Z,8.20
2023-05-06T03:55:31.969Z,8.05
2023-05-06T03:56:33.902Z,7.40
2023-05-06T03:57:35.621Z,8.35
2023-05-06T03:58:37.599Z,7.53
2023-05-06T03:59:41.409Z,8.23
2023-05-06T04:00:43.044Z,8.52
2023-05-06T04:01:44.781Z,8.45
2023-05-06T04:02:47.861Z,8.52
2023-05-06T04:04:59.572Z,7.60
2023-05-06T04:06:01.172Z,7.85
2023-05-06T04:07:03.812Z,7.88
2023-05-06T04:08:05.738Z,8.38
2023-05-06T04:09:07.703Z,8.98
2023-05-06T04:10:11.878Z,9.10
2023-05-06T04:11:15.130Z,8.65
2023-05-06T04:12:16.755Z,8.90
2023-05-06T04:13:20.775Z,8.38
2023-05-06T04:14:22.400Z,8.68
2023-05-06T04:15:24.159Z,8.45
2023-05-06T04:16:26.533Z,8.50
2023-05-06T04:17:28.272Z,9.60
2023-05-06T04:18:30.610Z,8.02
2023-05-06T04:19:39.853Z,8.43
2023-05-06T04:20:41.423Z,8.40
2023-05-06T04:21:43.161Z,8.95
2023-05-06T04:22:46.715Z,8.98
2023-05-06T04:23:49.016Z,8.45
2023-05-06T04:24:55.058Z,7.90
2023-05-06T04:25:57.824Z,9.10
2023-05-06T04:27:00.214Z,7.80
2023-05-06T04:29:04.177Z,7.38
2023-05-06T04:30:09.475Z,7.75
2023-05-06T04:31:14.418Z,7.50
2023-05-06T04:32:20.932Z,7.40
2023-05-06T04:33:25.041Z,7.60
2023-05-06T04:34:28.917Z,7.38
2023-05-06T04:35:34.044Z,7.20
2023-05-06T04:36:37.940Z,7.07
2023-05-06T04:37:48.910Z,7.30
2023-05-06T04:38:57.043Z,7.38
2023-05-06T04:39:59.213Z,7.32
2023-05-06T04:41:00.810Z,7.75
2023-05-06T04:42:03.413Z,7.43
2023-05-06T04:43:12.844Z,6.90
2023-05-06T04:44:14.439Z,6.38
2023-05-06T04:45:18.460Z,6.43
2023-05-06T04:46:23.734Z,7.00
2023-05-06T04:47:25.724Z,6.82
2023-05-06T04:48:28.020Z,6.57
2023-05-06T04:49:32.311Z,6.55
2023-05-06T04:50:33.992Z,6.82
2023-05-06T04:51:35.594Z,6.85
2023-05-06T04:52:37.974Z,5.65
2023-05-06T04:54:45.380Z,5.13
2023-05-06T04:55:47.357Z,4.88
2023-05-06T04:56:49.095Z,4.95
2023-05-06T04:57:52.897Z,5.30
2023-05-06T04:58:54.462Z,5.47
2023-05-06T05:01:01.365Z,4.97
2023-05-06T05:02:03.714Z,4.63
2023-05-06T05:03:05.592Z,4.43
2023-05-06T05:04:07.375Z,4.32
2023-05-06T05:05:09.556Z,4.95
2023-05-06T05:06:13.367Z,5.15
2023-05-06T05:07:15.048Z,4.95
2023-05-06T05:08:16.775Z,5.15
2023-05-06T05:09:18.524Z,4.75
2023-05-06T05:10:22.289Z,5.18
2023-05-06T05:11:25.386Z,4.65
2023-05-06T05:12:27.007Z,5.97
2023-05-06T05:13:28.586Z,4.95
2023-05-06T05:14:31.550Z,5.13
2023-05-06T05:15:33.612Z,5.28
2023-05-06T05:16:35.617Z,5.28
2023-05-06T05:17:38.544Z,5.53
2023-05-06T05:18:41.213Z,5.25
2023-05-06T05:19:49.519Z,4.30
2023-05-06T05:20:51.926Z,5.18
2023-05-06T05:21:53.654Z,4.45
2023-05-06T05:22:57.144Z,4.20
2023-05-06T05:23:58.679Z,4.47
2023-05-06T05:25:00.433Z,4.70
2023-05-06T05:26:02.983Z,4.70
2023-05-06T05:27:04.723Z,5.07
2023-05-06T05:29:10.155Z,5.03
2023-05-06T05:31:14.773Z,4.35
2023-05-06T05:32:17.318Z,4.88
2023-05-06T05:33:18.977Z,5.80
2023-05-06T05:34:20.862Z,4.53
2023-05-06T05:35:23.650Z,5.07
2023-05-06T05:36:27.672Z,4.88
2023-05-06T05:37:31.178Z,5.80
2023-05-06T05:38:33.754Z,5.55
2023-05-06T05:40:37.299Z,5.20
2023-05-06T05:41:38.959Z,5.53
2023-05-06T05:42:40.825Z,5.13
2023-05-06T05:43:50.598Z,5.50
2023-05-06T05:44:52.630Z,5.70
2023-05-06T05:45:55.124Z,5.43
2023-05-06T05:46:56.797Z,5.50
2023-05-06T05:47:58.490Z,5.70
2023-05-06T05:49:00.130Z,6.20
2023-05-06T05:50:01.873Z,5.88
2023-05-06T05:51:04.806Z,5.65
2023-05-06T05:52:07.884Z,6.05
2023-05-06T05:53:09.470Z,5.20
2023-05-06T05:54:12.422Z,5.90
2023-05-06T05:55:15.810Z,5.75
2023-05-06T05:56:19.740Z,5.68
2023-05-06T05:57:22.415Z,5.85
2023-05-06T05:58:24.336Z,5.93
2023-05-06T05:59:27.467Z,5.93
2023-05-06T06:00:30.619Z,6.32
2023-05-06T06:01:39.797Z,5.63
2023-05-06T06:02:43.195Z,6.20
2023-05-06T06:03:45.751Z,6.15
2023-05-06T06:04:47.930Z,6.10
2023-05-06T06:05:49.727Z,6.18
2023-05-06T06:06:51.737Z,6.13
2023-05-06T06:07:53.465Z,5.28
2023-05-06T06:08:56.293Z,6.05
2023-05-06T06:09:58.889Z,6.68
2023-05-06T06:11:02.042Z,6.57
2023-05-06T06:12:09.721Z,5.85
2023-05-06T06:13:14.403Z,6.97
2023-05-06T06:14:16.087Z,6.43
2023-05-06T06:15:17.744Z,5.68
2023-05-06T06:17:23.341Z,6.20
2023-05-06T06:18:27.443Z,6.45
2023-05-06T06:19:29.444Z,6.40
2023-05-06T06:20:31.720Z,6.50
2023-05-06T06:21:33.589Z,6.60
2023-05-06T06:22:35.834Z,6.82
2023-05-06T06:23:37.512Z,6.53
2023-05-06T06:24:40.215Z,6.55
2023-05-06T06:25:41.867Z,6.30
2023-05-06T06:26:43.749Z,6.90
2023-05-06T06:27:45.442Z,6.03
2023-05-06T06:28:47.837Z,6.38
2023-05-06T06:29:50.381Z,6.70
2023-05-06T06:30:52.021Z,6.95
2023-05-06T06:31:55.942Z,6.47
2023-05-06T06:33:01.285Z,6.63
2023-05-06T06:34:06.446Z,6.60
2023-05-06T06:35:08.293Z,6.90
2023-05-06T06:36:10.748Z,5.85
2023-05-06T06:37:12.640Z,6.68
2023-05-06T06:38:14.247Z,6.78
2023-05-06T06:39:15.841Z,6.38
2023-05-06T06:40:17.530Z,5.95
2023-05-06T06:41:19.082Z,5.45
2023-05-06T06:42:21.015Z,6.38
2023-05-06T06:43:32.664Z,6.25
2023-05-06T06:44:36.302Z,6.45
2023-05-06T06:45:37.916Z,6.45
2023-05-06T06:46:39.536Z,6.38
2023-05-06T06:47:41.524Z,6.53
2023-05-06T06:48:43.150Z,6.25
2023-05-06T06:49:44.752Z,6.00
2023-05-06T06:50:46.573Z,6.40
2023-05-06T06:51:48.190Z,6.20
2023-05-06T06:52:49.764Z,5.85
2023-05-06T06:53:52.129Z,5.32
2023-05-06T06:55:55.308Z,5.90
2023-05-06T06:56:57.345Z,5.50
2023-05-06T06:57:58.990Z,5.85
2023-05-06T06:59:00.593Z,6.20
2023-05-06T07:00:02.268Z,6.18
2023-05-06T07:01:04.129Z,5.80
2023-05-06T07:02:05.745Z,5.32
2023-05-06T07:03:07.425Z,6.05
2023-05-06T07:04:09.080Z,6.30
2023-05-06T07:05:11.015Z,5.55
2023-05-06T07:06:12.755Z,5.38
2023-05-06T07:07:14.480Z,5.78
2023-05-06T07:08:17.157Z,5.95
2023-05-06T07:09:18.881Z,5.97
2023-05-06T07:10:20.584Z,6.32
2023-05-06T07:11:22.163Z,5.57
2023-05-06T07:12:24.575Z,6.28
2023-05-06T07:14:27.831Z,4.72
2023-05-06T07:15:29.419Z,5.38
2023-05-06T07:16:31.026Z,5.28
2023-05-06T07:17:35.750Z,5.65
2023-05-06T07:18:37.451Z,5.63
2023-05-06T07:19:39.036Z,5.28
2023-05-06T07:20:40.750Z,5.05
2023-05-06T07:21:42.326Z,5.10
2023-05-06T07:22:45.612Z,5.28
2023-05-06T07:23:47.186Z,4.80
2023-05-06T07:24:48.753Z,5.72
2023-05-06T07:25:50.403Z,5.28
2023-05-06T07:26:51.956Z,5.07
2023-05-06T07:27:53.566Z,4.60
2023-05-06T07:28:55.177Z,4.72
2023-05-06T07:29:56.801Z,4.22
2023-05-06T07:30:58.427Z,4.75
2023-05-06T07:32:00.049Z,4.75
2023-05-06T07:33:01.663Z,4.95
2023-05-06T07:34:03.270Z,4.45
2023-05-06T07:35:05.731Z,4.10
2023-05-06T07:36:07.840Z,3.92
2023-05-06T07:37:09.440Z,4.30
2023-05-06T07:38:11.143Z,4.25
2023-05-06T07:39:13.904Z,4.03
2023-05-06T07:40:17.018Z,3.78
2023-05-06T07:41:18.894Z,3.60
2023-05-06T07:42:20.562Z,4.20
2023-05-06T07:43:22.677Z,4.25
2023-05-06T07:44:24.230Z,3.92
2023-05-06T07:45:26.200Z,3.92
2023-05-06T07:46:27.919Z,4.35
2023-05-06T07:47:31.861Z,4.65
2023-05-06T07:48:33.755Z,4.03
2023-05-06T07:49:35.486Z,4.18
2023-05-06T07:50:37.061Z,4.43
2023-05-06T07:51:38.686Z,3.85
2023-05-06T07:52:40.270Z,3.95
2023-05-06T07:53:41.836Z,4.10
2023-05-06T07:54:43.405Z,3.90
2023-05-06T07:55:44.954Z,3.40
2023-05-06T07:56:46.625Z,3.60
2023-05-06T07:57:49.628Z,3.53
2023-05-06T07:58:51.329Z,3.63
2023-05-06T07:59:53.014Z,3.90
2023-05-06T08:00:54.683Z,3.88
2023-05-06T08:01:56.381Z,4.30
2023-05-06T08:02:58.264Z,3.92
2023-05-06T08:04:00.562Z,4.20
2023-05-06T08:05:02.465Z,3.85
2023-05-06T08:06:04.194Z,4.13
2023-05-06T08:07:05.821Z,3.83
2023-05-06T08:08:07.422Z,3.83
2023-05-06T08:09:09.373Z,3.78
2023-05-06T08:10:11.848Z,3.90
2023-05-06T08:11:13.562Z,3.90
2023-05-06T08:12:16.057Z,4.45
2023-05-06T08:13:17.802Z,3.58
2023-05-06T08:14:19.589Z,3.70
2023-05-06T08:15:21.172Z,3.70
2023-05-06T08:16:25.008Z,3.80
2023-05-06T08:17:27.173Z,3.65
2023-05-06T08:18:28.911Z,3.83
2023-05-06T08:19:30.827Z,4.28
2023-05-06T08:20:32.564Z,3.55
2023-05-06T08:21:34.132Z,3.47
2023-05-06T08:22:35.782Z,3.55
2023-05-06T08:23:37.815Z,3.17
2023-05-06T08:24:39.392Z,3.88
2023-05-06T08:25:40.994Z,3.67
2023-05-06T08:26:42.658Z,3.72
2023-05-06T08:27:44.992Z,3.63
2023-05-06T08:29:48.142Z,3.30
2023-05-06T08:30:51.533Z,3.70
2023-05-06T08:31:53.289Z,3.42
2023-05-06T08:32:55.114Z,3.83
2023-05-06T08:33:56.725Z,3.38
2023-05-06T08:34:59.756Z,3.58
2023-05-06T08:36:01.343Z,3.40
2023-05-06T08:37:03.012Z,3.35
2023-05-06T08:38:05.135Z,3.40
2023-05-06T08:39:06.705Z,3.13
2023-05-06T08:40:22.198Z,3.30
2023-05-06T08:41:24.720Z,3.10
2023-05-06T08:42:28.366Z,2.90
2023-05-06T08:43:32.005Z,3.05
2023-05-06T08:44:33.652Z,2.55
2023-05-06T08:45:35.308Z,2.60
2023-05-06T08:46:36.925Z,2.80
2023-05-06T08:47:38.642Z,2.90
2023-05-06T08:48:41.055Z,3.20
2023-05-06T08:49:42.650Z,3.15
2023-05-06T08:50:44.317Z,3.40
2023-05-06T08:51:46.574Z,2.95
2023-05-06T08:52:48.260Z,3.17
2023-05-06T08:53:51.652Z,3.10
2023-05-06T08:54:57.901Z,2.90
2023-05-06T08:56:04.434Z,3.15
2023-05-06T08:57:06.486Z,3.03
2023-05-06T08:58:08.702Z,2.70
2023-05-06T08:59:10.843Z,2.60
2023-05-06T09:00:12.847Z,3.10
2023-05-06T09:01:15.870Z,3.00
2023-05-06T09:02:17.658Z,3.00
2023-05-06T09:03:19.525Z,2.95
2023-05-06T09:04:21.517Z,3.10
2023-05-06T09:05:23.092Z,2.80
2023-05-06T09:06:25.219Z,2.65
2023-05-06T09:07:28.015Z,3.10
2023-05-06T09:08:29.735Z,2.80
2023-05-06T09:09:31.364Z,3.00
2023-05-06T09:10:37.810Z,3.28
2023-05-06T09:11:39.372Z,3.22
2023-05-06T09:12:41.512Z,3.50
2023-05-06T09:13:43.109Z,2.97
2023-05-06T09:14:45.736Z,3.33
2023-05-06T09:15:48.554Z,3.50
2023-05-06T09:16:52.317Z,3.25
2023-05-06T09:17:55.207Z,3.42
2023-05-06T09:18:57.099Z,3.47
2023-05-06T09:19:59.144Z,3.22
2023-05-06T09:21:04.328Z,3.17
2023-05-06T09:22:06.109Z,3.30
2023-05-06T09:23:09.581Z,2.95
2023-05-06T09:24:12.590Z,2.85
2023-05-06T09:25:14.227Z,2.58
2023-05-06T09:26:15.915Z,2.30
2023-05-06T09:27:17.510Z,2.40
2023-05-06T09:28:19.121Z,2.45
2023-05-06T09:29:20.841Z,1.92
2023-05-06T09:30:22.436Z,2.20
2023-05-06T09:31:25.808Z,2.22
2023-05-06T09:32:28.560Z,2.22
2023-05-06T09:33:30.230Z,2.15
2023-05-06T09:34:31.938Z,2.50
2023-05-06T09:35:38.409Z,2.63
2023-05-06T09:36:40.078Z,2.85
2023-05-06T09:37:41.696Z,2.75
2023-05-06T09:38:43.431Z,2.97
2023-05-06T09:39:45.200Z,3.30
2023-05-06T09:40:46.833Z,3.10
2023-05-06T09:41:48.477Z,3.20
2023-05-06T09:42:51.666Z,3.33
2023-05-06T09:43:54.262Z,3.05
2023-05-06T09:45:00.533Z,3.10
2023-05-06T09:46:06.094Z,3.00
2023-05-06T09:47:07.779Z,3.05
2023-05-06T09:48:09.850Z,3.13
2023-05-06T09:50:14.016Z,3.65
2023-05-06T09:51:16.083Z,3.80
2023-05-06T09:52:19.441Z,3.50
2023-05-06T09:53:22.777Z,3.63
2023-05-06T09:54:25.049Z,3.72
2023-05-06T09:56:30.780Z,3.17
2023-05-06T09:57:33.368Z,3.17
2023-05-06T09:58:35.994Z,3.13
2023-05-06T09:59:38.412Z,3.20
2023-05-06T10:00:40.073Z,3.38
2023-05-06T10:01:42.203Z,3.35
2023-05-06T10:02:45.565Z,3.08
2023-05-06T10:03:48.306Z,3.90
2023-05-06T10:04:50.480Z,3.03
2023-05-06T10:05:57.264Z,3.25
2023-05-06T10:07:00.870Z,3.08
2023-05-06T10:08:04.370Z,3.35
2023-05-06T10:09:07.279Z,3.28
2023-05-06T10:10:11.348Z,3.40
2023-05-06T10:11:14.690Z,3.17
2023-05-06T10:12:16.497Z,3.33
2023-05-06T10:13:20.208Z,3.50
2023-05-06T10:14:21.838Z,3.50
2023-05-06T10:15:25.367Z,3.47
2023-05-06T10:16:27.617Z,3.20
2023-05-06T10:17:31.727Z,3.45
2023-05-06T10:18:35.720Z,3.30
2023-05-06T10:19:40.859Z,3.15
2023-05-06T10:20:43.319Z,3.60
2023-05-06T10:21:49.675Z,3.65
2023-05-06T10:23:10.911Z,3.35
2023-05-06T10:24:13.628Z,3.00
2023-05-06T10:25:35.577Z,3.33
2023-05-06T10:26:38.370Z,3.70
2023-05-06T10:27:43.278Z,3.50
2023-05-06T10:28:49.421Z,3.40
2023-05-06T10:29:58.769Z,3.30
2023-05-06T10:31:00.840Z,3.33
2023-05-06T10:32:03.409Z,3.28
2023-05-06T10:33:09.984Z,3.13
2023-05-06T10:34:11.719Z,3.22
2023-05-06T10:35:25.232Z,3.03
2023-05-06T10:36:28.890Z,3.00
2023-05-06T10:37:31.051Z,3.20
2023-05-06T10:38:44.059Z,3.00
2023-05-06T10:39:46.232Z,3.10
2023-05-06T10:40:48.936Z,3.55
2023-05-06T10:41:50.796Z,3.50
2023-05-06T10:42:52.447Z,2.75
2023-05-06T10:43:57.756Z,2.97
2023-05-06T10:45:01.105Z,2.80
2023-05-06T10:46:18.031Z,2.40
2023-05-06T10:47:20.030Z,2.53
2023-05-06T10:48:21.631Z,2.70
2023-05-06T10:49:23.242Z,3.03
2023-05-06T10:50:27.992Z,2.70
2023-05-06T10:51:29.694Z,2.80
2023-05-06T10:52:45.034Z,2.70
2023-05-06T10:53:55.669Z,2.97
2023-05-06T10:54:57.259Z,2.88
2023-05-06T10:56:09.055Z,2.70
2023-05-06T10:57:11.002Z,3.15
2023-05-06T10:58:16.578Z,3.30
2023-05-06T10:59:22.114Z,2.50
2023-05-06T11:00:24.066Z,2.60
2023-05-06T11:01:28.695Z,2.72
2023-05-06T11:02:30.967Z,2.47
2023-05-06T11:04:34.308Z,2.10
2023-05-06T11:05:50.078Z,2.20
2023-05-06T11:06:53.211Z,2.60
2023-05-06T11:08:09.148Z,2.45
2023-05-06T11:09:24.666Z,2.60
2023-05-06T11:10:33.205Z,2.30
2023-05-06T11:12:03.946Z,2.25
2023-05-06T11:13:34.740Z,2.47
2023-05-06T11:14:37.774Z,1.98
2023-05-06T11:15:40.618Z,2.35
2023-05-06T11:16:49.110Z,2.40
2023-05-06T11:17:50.874Z,2.20
2023-05-06T11:18:52.798Z,2.17
2023-05-06T11:20:19.922Z,2.30
2023-05-06T11:21:30.422Z,2.40
2023-05-06T11:22:40.128Z,2.00
2023-05-06T11:23:41.955Z,2.38
2023-05-06T11:24:43.899Z,2.45
2023-05-06T11:25:47.193Z,2.80
2023-05-06T11:26:49.825Z,2.20
2023-05-06T11:27:51.392Z,2.33
2023-05-06T11:28:52.971Z,2.40
2023-05-06T11:29:54.635Z,2.40
2023-05-06T11:30:56.559Z,2.33
2023-05-06T11:31:58.404Z,2.20
2023-05-06T11:33:05.529Z,2.45
2023-05-06T11:34:10.413Z,2.10
2023-05-06T11:35:12.159Z,2.13
2023-05-06T11:36:20.745Z,2.70
2023-05-06T11:37:26.906Z,2.40
2023-05-06T11:38:44.253Z,2.30
2023-05-06T11:39:49.237Z,2.00
2023-05-06T11:40:51.487Z,1.90
2023-05-06T11:41:53.612Z,2.05
2023-05-06T11:42:55.588Z,2.08
2023-05-06T11:43:57.194Z,2.00
2023-05-06T11:45:02.064Z,2.08
2023-05-06T11:46:03.878Z,2.65
2023-05-06T11:47:08.350Z,2.05
2023-05-06T11:48:16.859Z,1.90
2023-05-06T11:49:19.001Z,1.90
2023-05-06T11:50:22.287Z,1.80
2023-05-06T11:51:24.688Z,1.83
2023-05-06T11:52:26.257Z,1.80
2023-05-06T11:53:29.962Z,2.20
2023-05-06T11:54:35.616Z,1.70
2023-05-06T11:55:38.548Z,1.70
2023-05-06T11:56:48.417Z,1.70
2023-05-06T11:57:50.226Z,1.90
2023-05-06T11:58:52.260Z,1.75
2023-05-06T11:59:55.036Z,1.75
2023-05-06T12:00:59.058Z,1.60
2023-05-06T12:02:02.924Z,1.70
2023-05-06T12:03:04.580Z,1.73
2023-05-06T12:04:06.329Z,2.03
2023-05-06T12:05:09.568Z,1.80
2023-05-06T12:06:12.765Z,1.85
2023-05-06T12:07:15.895Z,1.90
2023-05-06T12:08:27.245Z,2.05
2023-05-06T12:09:29.799Z,1.90
2023-05-06T12:10:31.453Z,1.90
2023-05-06T12:11:36.451Z,2.00
2023-05-06T12:12:38.389Z,1.90
2023-05-06T12:13:40.682Z,2.10
2023-05-06T12:15:44.398Z,1.80
2023-05-06T12:16:46.283Z,1.77
2023-05-06T12:17:47.928Z,2.00
2023-05-06T12:18:49.809Z,2.00
2023-05-06T12:19:51.626Z,1.80
2023-05-06T12:20:57.319Z,1.85
2023-05-06T12:22:26.334Z,1.85
2023-05-06T12:23:28.003Z,1.80
2023-05-06T12:24:30.010Z,1.55
2023-05-06T12:25:31.590Z,1.90
2023-05-06T12:26:43.158Z,1.80
2023-05-06T12:27:45.603Z,1.88
2023-05-06T12:28:47.293Z,1.63
2023-05-06T12:29:53.371Z,1.80
2023-05-06T12:30:54.930Z,1.60
2023-05-06T12:32:10.894Z,1.70
2023-05-06T12:33:12.842Z,1.90
2023-05-06T12:34:19.065Z,2.03
2023-05-06T12:35:31.862Z,1.85
2023-05-06T12:36:39.614Z,1.90
2023-05-06T12:37:41.236Z,2.20
2023-05-06T12:38:53.347Z,1.67
2023-05-06T12:40:07.756Z,1.60
2023-05-06T12:41:10.972Z,1.88
2023-05-06T12:42:20.461Z,1.75
2023-05-06T12:43:31.474Z,1.80
2023-05-06T12:44:38.033Z,1.60
2023-05-06T12:45:40.429Z,1.70
2023-05-06T12:46:50.753Z,1.90
2023-05-06T12:47:59.130Z,1.80
2023-05-06T12:50:02.792Z,1.60
2023-05-06T12:51:18.628Z,1.58
2023-05-06T12:52:22.215Z,1.80
2023-05-06T12:53:34.604Z,1.60
2023-05-06T12:54:37.022Z,1.70
2023-05-06T12:56:40.841Z,1.58
2023-05-06T12:57:42.408Z,1.50
2023-05-06T12:58:44.010Z,1.70
2023-05-06T12:59:46.031Z,1.63
2023-05-06T13:00:47.709Z,1.60
2023-05-06T13:01:49.677Z,1.85
2023-05-06T13:02:51.328Z,1.58
2023-05-06T13:03:56.684Z,1.70
2023-05-06T13:04:58.380Z,1.42
2023-05-06T13:05:59.962Z,1.60
2023-05-06T13:07:01.627Z,1.80
2023-05-06T13:08:04.440Z,1.40
2023-05-06T13:09:06.518Z,1.40
2023-05-06T13:10:08.942Z,1.90
2023-05-06T13:11:10.781Z,1.55
2023-05-06T13:12:12.391Z,1.52
2023-05-06T13:13:14.112Z,1.80
2023-05-06T13:14:16.367Z,1.50
2023-05-06T13:15:18.037Z,1.90
2023-05-06T13:16:19.670Z,1.60
2023-05-06T13:17:21.379Z,1.70
2023-05-06T13:18:23.056Z,1.60
2023-05-06T13:19:32.360Z,1.50
2023-05-06T13:20:34.742Z,1.80
2023-05-06T13:21:38.039Z,1.40
2023-05-06T13:22:53.165Z,1.50
2023-05-06T13:23:55.835Z,1.50
2023-05-06T13:24:57.438Z,1.40
2023-05-06T13:26:04.896Z,1.65
2023-05-06T13:27:07.417Z,1.58
2023-05-06T13:28:09.784Z,1.50
2023-05-06T13:29:11.617Z,1.60
2023-05-06T13:30:13.646Z,1.75
2023-05-06T13:31:15.571Z,1.52
2023-05-06T13:32:17.209Z,1.52
2023-05-06T13:33:18.769Z,1.80
2023-05-06T13:34:20.846Z,1.40
2023-05-06T13:35:22.435Z,1.60
2023-05-06T13:36:24.309Z,1.67
2023-05-06T13:37:25.883Z,1.75
2023-05-06T13:38:28.261Z,1.73
2023-05-06T13:40:31.323Z,1.50
2023-05-06T13:41:33.000Z,1.80
2023-05-06T13:42:34.601Z,1.50
2023-05-06T13:43:36.469Z,1.60
2023-05-06T13:44:38.117Z,2.00
2023-05-06T13:45:39.714Z,1.60
2023-05-06T13:46:44.016Z,1.60
2023-05-06T13:47:47.221Z,1.58
2023-05-06T13:48:48.848Z,1.45
2023-05-06T13:49:50.549Z,1.70
2023-05-06T13:50:52.227Z,1.42
2023-05-06T13:51:53.849Z,1.50
2023-05-06T13:52:55.457Z,1.90
2023-05-06T13:53:57.116Z,1.60
2023-05-06T13:54:58.741Z,1.48
2023-05-06T13:56:00.485Z,1.70
2023-05-06T13:57:02.826Z,1.58
2023-05-06T13:59:08.029Z,1.52
2023-05-06T14:00:11.457Z,1.60
2023-05-06T14:01:13.059Z,1.52
2023-05-06T14:02:15.022Z,1.50
2023-05-06T14:03:16.782Z,1.70
2023-05-06T14:04:18.378Z,1.65
2023-05-06T14:05:20.098Z,1.67
2023-05-06T14:06:21.790Z,1.50
2023-05-06T14:07:23.428Z,1.73
2023-05-06T14:08:25.081Z,1.70
2023-05-06T14:09:26.790Z,1.73
2023-05-06T14:10:28.376Z,1.80
2023-05-06T14:11:30.001Z,1.88
2023-05-06T14:12:31.603Z,1.60
2023-05-06T14:13:33.915Z,1.70
2023-05-06T14:15:37.156Z,1.50
2023-05-06T14:16:38.814Z,1.90
2023-05-06T14:17:40.965Z,1.63
2023-05-06T14:18:42.676Z,1.60
2023-05-06T14:19:44.248Z,2.15
2023-05-06T14:20:45.847Z,2.00
2023-05-06T14:21:47.439Z,1.70
2023-05-06T14:22:49.186Z,2.50
2023-05-06T14:23:50.824Z,2.28
2023-05-06T14:24:52.478Z,1.60
2023-05-06T14:25:54.036Z,1.88
2023-05-06T14:26:55.667Z,1.70
2023-05-06T14:27:57.270Z,1.80
2023-05-06T14:28:58.830Z,1.58
2023-05-06T14:30:01.542Z,1.67